sensor_id;sensor_type;location;lat;lon;timestamp;P1;durP1;ratioP1;P2;durP2;ratioP2
43216;SDS011;71549;42.686;23.300;2023-08-08T00:00:25;0.77;;;0.52;;
43216;SDS011;71549;42.686;23.300;2023-08-08T00:04:48;1.00;;;0.73;;
43216;SDS011;71549;42.686;23.300;2023-08-08T00:06:50;0.98;;;0.88;;
43216;SDS011;71549;42.686;23.300;2023-08-08T00:08:51;1.52;;;0.95;;
43216;SDS011;71549;42.686;23.300;2023-08-08T00:10:51;0.93;;;0.47;;
43216;SDS011;71549;42.686;23.300;2023-08-08T00:12:52;1.73;;;0.43;;
43216;SDS011;71549;42.686;23.300;2023-08-08T00:14:53;0.43;;;0.38;;
43216;SDS011;71549;42.686;23.300;2023-08-08T00:16:53;0.50;;;0.45;;
43216;SDS011;71549;42.686;23.300;2023-08-08T00:18:53;1.65;;;0.57;;
43216;SDS011;71549;42.686;23.300;2023-08-08T00:20:54;0.50;;;0.50;;
43216;SDS011;71549;42.686;23.300;2023-08-08T00:22:54;0.65;;;0.45;;
43216;SDS011;71549;42.686;23.300;2023-08-08T00:24:55;0.73;;;0.50;;
43216;SDS011;71549;42.686;23.300;2023-08-08T00:26:55;0.45;;;0.40;;
43216;SDS011;71549;42.686;23.300;2023-08-08T00:28:56;1.05;;;0.32;;
43216;SDS011;71549;42.686;23.300;2023-08-08T00:30:56;0.85;;;0.30;;
43216;SDS011;71549;42.686;23.300;2023-08-08T00:32:57;0.80;;;0.60;;
43216;SDS011;71549;42.686;23.300;2023-08-08T00:34:57;1.23;;;0.47;;
43216;SDS011;71549;42.686;23.300;2023-08-08T00:36:57;0.43;;;0.30;;
43216;SDS011;71549;42.686;23.300;2023-08-08T00:38:58;0.38;;;0.30;;
43216;SDS011;71549;42.686;23.300;2023-08-08T00:40:58;0.22;;;0.20;;
43216;SDS011;71549;42.686;23.300;2023-08-08T00:42:59;0.40;;;0.30;;
43216;SDS011;71549;42.686;23.300;2023-08-08T00:44:59;0.40;;;0.20;;
43216;SDS011;71549;42.686;23.300;2023-08-08T00:49:21;1.55;;;0.40;;
43216;SDS011;71549;42.686;23.300;2023-08-08T00:51:22;1.33;;;0.22;;
43216;SDS011;71549;42.686;23.300;2023-08-08T00:53:25;0.30;;;0.30;;
43216;SDS011;71549;42.686;23.300;2023-08-08T00:55:28;0.88;;;0.30;;
43216;SDS011;71549;42.686;23.300;2023-08-08T00:57:28;0.40;;;0.40;;
43216;SDS011;71549;42.686;23.300;2023-08-08T00:59:29;0.32;;;0.28;;
43216;SDS011;71549;42.686;23.300;2023-08-08T01:01:29;0.60;;;0.40;;
43216;SDS011;71549;42.686;23.300;2023-08-08T01:03:30;2.15;;;0.30;;
43216;SDS011;71549;42.686;23.300;2023-08-08T01:05:32;0.93;;;0.30;;
43216;SDS011;71549;42.686;23.300;2023-08-08T01:07:44;0.50;;;0.40;;
43216;SDS011;71549;42.686;23.300;2023-08-08T01:09:57;0.47;;;0.32;;
43216;SDS011;71549;42.686;23.300;2023-08-08T01:12:08;1.75;;;0.30;;
43216;SDS011;71549;42.686;23.300;2023-08-08T01:14:11;0.32;;;0.30;;
43216;SDS011;71549;42.686;23.300;2023-08-08T01:16:11;1.95;;;0.30;;
43216;SDS011;71549;42.686;23.300;2023-08-08T01:18:13;0.22;;;0.22;;
43216;SDS011;71549;42.686;23.300;2023-08-08T01:20:15;0.28;;;0.28;;
43216;SDS011;71549;42.686;23.300;2023-08-08T01:22:24;0.50;;;0.30;;
43216;SDS011;71549;42.686;23.300;2023-08-08T01:24:29;0.55;;;0.38;;
43216;SDS011;71549;42.686;23.300;2023-08-08T01:26:32;1.05;;;0.40;;
43216;SDS011;71549;42.686;23.300;2023-08-08T01:28:33;0.60;;;0.30;;
43216;SDS011;71549;42.686;23.300;2023-08-08T01:30:34;0.40;;;0.30;;
43216;SDS011;71549;42.686;23.300;2023-08-08T01:32:35;0.50;;;0.43;;
43216;SDS011;71549;42.686;23.300;2023-08-08T01:34:35;0.63;;;0.55;;
43216;SDS011;71549;42.686;23.300;2023-08-08T01:36:42;3.15;;;0.40;;
43216;SDS011;71549;42.686;23.300;2023-08-08T01:38:45;0.77;;;0.50;;
43216;SDS011;71549;42.686;23.300;2023-08-08T01:40:48;0.80;;;0.40;;
43216;SDS011;71549;42.686;23.300;2023-08-08T01:42:49;0.22;;;0.20;;
43216;SDS011;71549;42.686;23.300;2023-08-08T01:44:51;1.95;;;0.40;;
43216;SDS011;71549;42.686;23.300;2023-08-08T01:46:53;2.40;;;0.40;;
43216;SDS011;71549;42.686;23.300;2023-08-08T01:48:54;0.32;;;0.22;;
43216;SDS011;71549;42.686;23.300;2023-08-08T01:50:57;0.73;;;0.30;;
43216;SDS011;71549;42.686;23.300;2023-08-08T01:52:57;0.85;;;0.40;;
43216;SDS011;71549;42.686;23.300;2023-08-08T01:54:58;0.30;;;0.20;;
43216;SDS011;71549;42.686;23.300;2023-08-08T01:56:58;0.90;;;0.40;;
43216;SDS011;71549;42.686;23.300;2023-08-08T01:58:58;1.48;;;0.38;;
43216;SDS011;71549;42.686;23.300;2023-08-08T02:00:59;2.67;;;0.60;;
43216;SDS011;71549;42.686;23.300;2023-08-08T02:02:59;0.22;;;0.22;;
43216;SDS011;71549;42.686;23.300;2023-08-08T02:05:01;0.40;;;0.30;;
43216;SDS011;71549;42.686;23.300;2023-08-08T02:07:02;0.70;;;0.32;;
43216;SDS011;71549;42.686;23.300;2023-08-08T02:09:03;0.38;;;0.30;;
43216;SDS011;71549;42.686;23.300;2023-08-08T02:11:03;1.52;;;0.40;;
43216;SDS011;71549;42.686;23.300;2023-08-08T02:13:04;0.30;;;0.28;;
43216;SDS011;71549;42.686;23.300;2023-08-08T02:15:04;1.02;;;0.50;;
43216;SDS011;71549;42.686;23.300;2023-08-08T02:17:05;1.13;;;0.30;;
43216;SDS011;71549;42.686;23.300;2023-08-08T02:19:06;0.80;;;0.50;;
43216;SDS011;71549;42.686;23.300;2023-08-08T02:21:07;1.65;;;0.52;;
43216;SDS011;71549;42.686;23.300;2023-08-08T02:23:08;0.50;;;0.40;;
43216;SDS011;71549;42.686;23.300;2023-08-08T02:25:09;0.30;;;0.25;;
43216;SDS011;71549;42.686;23.300;2023-08-08T02:27:11;1.38;;;0.40;;
43216;SDS011;71549;42.686;23.300;2023-08-08T02:29:12;0.40;;;0.30;;
43216;SDS011;71549;42.686;23.300;2023-08-08T02:31:12;0.88;;;0.32;;
43216;SDS011;71549;42.686;23.300;2023-08-08T02:33:14;1.33;;;0.50;;
43216;SDS011;71549;42.686;23.300;2023-08-08T02:35:15;0.57;;;0.40;;
43216;SDS011;71549;42.686;23.300;2023-08-08T02:37:15;1.08;;;0.40;;
43216;SDS011;71549;42.686;23.300;2023-08-08T02:39:16;0.60;;;0.50;;
43216;SDS011;71549;42.686;23.300;2023-08-08T02:41:16;0.43;;;0.20;;
43216;SDS011;71549;42.686;23.300;2023-08-08T02:43:17;1.00;;;0.22;;
43216;SDS011;71549;42.686;23.300;2023-08-08T02:45:17;0.60;;;0.50;;
43216;SDS011;71549;42.686;23.300;2023-08-08T02:47:18;0.43;;;0.25;;
43216;SDS011;71549;42.686;23.300;2023-08-08T02:49:19;1.27;;;0.40;;
43216;SDS011;71549;42.686;23.300;2023-08-08T02:51:19;1.20;;;0.50;;
43216;SDS011;71549;42.686;23.300;2023-08-08T02:53:19;0.65;;;0.30;;
43216;SDS011;71549;42.686;23.300;2023-08-08T02:55:20;0.90;;;0.35;;
43216;SDS011;71549;42.686;23.300;2023-08-08T02:57:20;0.52;;;0.20;;
43216;SDS011;71549;42.686;23.300;2023-08-08T02:59:21;0.40;;;0.40;;
43216;SDS011;71549;42.686;23.300;2023-08-08T03:01:21;1.65;;;0.35;;
43216;SDS011;71549;42.686;23.300;2023-08-08T03:03:22;0.52;;;0.52;;
43216;SDS011;71549;42.686;23.300;2023-08-08T03:05:22;1.05;;;0.40;;
43216;SDS011;71549;42.686;23.300;2023-08-08T03:07:22;1.33;;;0.60;;
43216;SDS011;71549;42.686;23.300;2023-08-08T03:09:23;1.40;;;0.40;;
43216;SDS011;71549;42.686;23.300;2023-08-08T03:11:23;0.73;;;0.52;;
43216;SDS011;71549;42.686;23.300;2023-08-08T03:13:24;0.60;;;0.50;;
43216;SDS011;71549;42.686;23.300;2023-08-08T03:15:24;0.60;;;0.40;;
43216;SDS011;71549;42.686;23.300;2023-08-08T03:17:24;0.90;;;0.50;;
43216;SDS011;71549;42.686;23.300;2023-08-08T03:19:25;1.27;;;0.43;;
43216;SDS011;71549;42.686;23.300;2023-08-08T03:21:26;0.40;;;0.40;;
43216;SDS011;71549;42.686;23.300;2023-08-08T03:23:26;0.95;;;0.70;;
43216;SDS011;71549;42.686;23.300;2023-08-08T03:25:26;0.70;;;0.50;;
43216;SDS011;71549;42.686;23.300;2023-08-08T03:27:27;0.60;;;0.60;;
43216;SDS011;71549;42.686;23.300;2023-08-08T03:29:27;1.02;;;0.70;;
43216;SDS011;71549;42.686;23.300;2023-08-08T03:31:28;0.50;;;0.50;;
43216;SDS011;71549;42.686;23.300;2023-08-08T03:33:28;1.25;;;0.30;;
43216;SDS011;71549;42.686;23.300;2023-08-08T03:35:29;0.38;;;0.35;;
43216;SDS011;71549;42.686;23.300;2023-08-08T03:37:29;0.63;;;0.40;;
43216;SDS011;71549;42.686;23.300;2023-08-08T03:39:29;1.00;;;0.60;;
43216;SDS011;71549;42.686;23.300;2023-08-08T03:41:30;1.52;;;0.52;;
43216;SDS011;71549;42.686;23.300;2023-08-08T03:43:30;1.13;;;0.68;;
43216;SDS011;71549;42.686;23.300;2023-08-08T03:45:31;0.90;;;0.75;;
43216;SDS011;71549;42.686;23.300;2023-08-08T03:47:31;0.93;;;0.70;;
43216;SDS011;71549;42.686;23.300;2023-08-08T03:49:32;0.63;;;0.50;;
43216;SDS011;71549;42.686;23.300;2023-08-08T03:51:33;0.50;;;0.45;;
43216;SDS011;71549;42.686;23.300;2023-08-08T03:53:33;0.52;;;0.35;;
43216;SDS011;71549;42.686;23.300;2023-08-08T03:55:33;0.82;;;0.50;;
43216;SDS011;71549;42.686;23.300;2023-08-08T03:57:34;1.33;;;0.50;;
43216;SDS011;71549;42.686;23.300;2023-08-08T03:59:34;0.90;;;0.43;;
43216;SDS011;71549;42.686;23.300;2023-08-08T04:01:35;0.50;;;0.47;;
43216;SDS011;71549;42.686;23.300;2023-08-08T04:03:37;0.60;;;0.60;;
43216;SDS011;71549;42.686;23.300;2023-08-08T04:05:38;0.50;;;0.47;;
43216;SDS011;71549;42.686;23.300;2023-08-08T04:07:38;0.70;;;0.60;;
43216;SDS011;71549;42.686;23.300;2023-08-08T04:09:39;1.05;;;0.70;;
43216;SDS011;71549;42.686;23.300;2023-08-08T04:11:40;0.80;;;0.50;;
43216;SDS011;71549;42.686;23.300;2023-08-08T04:13:40;1.52;;;0.68;;
43216;SDS011;71549;42.686;23.300;2023-08-08T04:15:41;1.38;;;0.77;;
43216;SDS011;71549;42.686;23.300;2023-08-08T04:17:41;1.33;;;0.60;;
43216;SDS011;71549;42.686;23.300;2023-08-08T04:19:41;1.35;;;0.80;;
43216;SDS011;71549;42.686;23.300;2023-08-08T04:21:42;1.55;;;0.75;;
43216;SDS011;71549;42.686;23.300;2023-08-08T04:23:42;3.13;;;0.65;;
43216;SDS011;71549;42.686;23.300;2023-08-08T04:25:43;0.95;;;0.95;;
43216;SDS011;71549;42.686;23.300;2023-08-08T04:27:44;0.80;;;0.80;;
43216;SDS011;71549;42.686;23.300;2023-08-08T04:29:44;1.10;;;1.00;;
43216;SDS011;71549;42.686;23.300;2023-08-08T04:31:45;0.77;;;0.70;;
43216;SDS011;71549;42.686;23.300;2023-08-08T04:33:45;1.00;;;0.70;;
43216;SDS011;71549;42.686;23.300;2023-08-08T04:35:46;0.85;;;0.85;;
43216;SDS011;71549;42.686;23.300;2023-08-08T04:37:47;1.73;;;1.17;;
43216;SDS011;71549;42.686;23.300;2023-08-08T04:39:48;0.95;;;0.88;;
43216;SDS011;71549;42.686;23.300;2023-08-08T04:41:48;1.10;;;0.90;;
43216;SDS011;71549;42.686;23.300;2023-08-08T04:43:49;1.67;;;1.08;;
43216;SDS011;71549;42.686;23.300;2023-08-08T04:45:50;1.08;;;1.00;;
43216;SDS011;71549;42.686;23.300;2023-08-08T04:47:51;2.53;;;1.23;;
43216;SDS011;71549;42.686;23.300;2023-08-08T04:49:51;1.42;;;0.82;;
43216;SDS011;71549;42.686;23.300;2023-08-08T04:51:52;2.47;;;1.00;;
43216;SDS011;71549;42.686;23.300;2023-08-08T04:53:52;2.30;;;0.98;;
43216;SDS011;71549;42.686;23.300;2023-08-08T04:55:52;1.52;;;0.93;;
43216;SDS011;71549;42.686;23.300;2023-08-08T04:57:53;2.05;;;1.00;;
43216;SDS011;71549;42.686;23.300;2023-08-08T04:59:54;1.40;;;1.10;;
43216;SDS011;71549;42.686;23.300;2023-08-08T05:01:54;1.20;;;1.02;;
43216;SDS011;71549;42.686;23.300;2023-08-08T05:03:55;1.60;;;1.02;;
43216;SDS011;71549;42.686;23.300;2023-08-08T05:05:55;1.80;;;1.35;;
43216;SDS011;71549;42.686;23.300;2023-08-08T05:07:55;1.13;;;0.90;;
43216;SDS011;71549;42.686;23.300;2023-08-08T05:09:56;2.03;;;1.17;;
43216;SDS011;71549;42.686;23.300;2023-08-08T05:11:56;2.05;;;1.00;;
43216;SDS011;71549;42.686;23.300;2023-08-08T05:13:57;3.35;;;1.25;;
43216;SDS011;71549;42.686;23.300;2023-08-08T05:15:57;1.88;;;1.10;;
43216;SDS011;71549;42.686;23.300;2023-08-08T05:17:57;2.35;;;1.02;;
43216;SDS011;71549;42.686;23.300;2023-08-08T05:19:59;2.55;;;1.00;;
43216;SDS011;71549;42.686;23.300;2023-08-08T05:22:00;2.40;;;0.95;;
43216;SDS011;71549;42.686;23.300;2023-08-08T05:24:00;2.33;;;1.20;;
43216;SDS011;71549;42.686;23.300;2023-08-08T05:26:01;0.80;;;0.80;;
43216;SDS011;71549;42.686;23.300;2023-08-08T05:28:01;0.85;;;0.82;;
43216;SDS011;71549;42.686;23.300;2023-08-08T05:30:03;1.23;;;1.17;;
43216;SDS011;71549;42.686;23.300;2023-08-08T05:32:05;1.20;;;0.80;;
43216;SDS011;71549;42.686;23.300;2023-08-08T05:34:06;1.15;;;0.82;;
43216;SDS011;71549;42.686;23.300;2023-08-08T05:36:07;1.88;;;1.20;;
43216;SDS011;71549;42.686;23.300;2023-08-08T05:38:07;2.25;;;0.75;;
43216;SDS011;71549;42.686;23.300;2023-08-08T05:40:08;1.85;;;0.80;;
43216;SDS011;71549;42.686;23.300;2023-08-08T05:42:10;0.90;;;0.88;;
43216;SDS011;71549;42.686;23.300;2023-08-08T05:44:11;1.05;;;0.85;;
43216;SDS011;71549;42.686;23.300;2023-08-08T05:46:13;1.63;;;1.10;;
43216;SDS011;71549;42.686;23.300;2023-08-08T05:48:13;1.30;;;0.90;;
43216;SDS011;71549;42.686;23.300;2023-08-08T05:50:15;1.77;;;1.13;;
43216;SDS011;71549;42.686;23.300;2023-08-08T05:52:15;2.05;;;1.02;;
43216;SDS011;71549;42.686;23.300;2023-08-08T05:54:15;1.63;;;1.00;;
43216;SDS011;71549;42.686;23.300;2023-08-08T05:56:16;1.00;;;1.00;;
43216;SDS011;71549;42.686;23.300;2023-08-08T05:58:16;1.83;;;1.15;;
43216;SDS011;71549;42.686;23.300;2023-08-08T06:00:17;1.88;;;1.10;;
43216;SDS011;71549;42.686;23.300;2023-08-08T06:02:17;1.17;;;1.08;;
43216;SDS011;71549;42.686;23.300;2023-08-08T06:04:18;1.38;;;0.85;;
43216;SDS011;71549;42.686;23.300;2023-08-08T06:06:18;2.13;;;1.45;;
43216;SDS011;71549;42.686;23.300;2023-08-08T06:08:19;1.20;;;1.10;;
43216;SDS011;71549;42.686;23.300;2023-08-08T06:10:19;1.27;;;1.17;;
43216;SDS011;71549;42.686;23.300;2023-08-08T06:12:20;1.23;;;1.08;;
43216;SDS011;71549;42.686;23.300;2023-08-08T06:14:20;2.58;;;0.98;;
43216;SDS011;71549;42.686;23.300;2023-08-08T06:16:21;1.95;;;1.10;;
43216;SDS011;71549;42.686;23.300;2023-08-08T06:18:22;0.90;;;0.90;;
43216;SDS011;71549;42.686;23.300;2023-08-08T06:20:23;1.70;;;1.20;;
43216;SDS011;71549;42.686;23.300;2023-08-08T06:22:23;5.13;;;1.60;;
43216;SDS011;71549;42.686;23.300;2023-08-08T06:24:24;1.27;;;1.17;;
43216;SDS011;71549;42.686;23.300;2023-08-08T06:26:25;4.93;;;1.25;;
43216;SDS011;71549;42.686;23.300;2023-08-08T06:28:25;2.35;;;1.13;;
43216;SDS011;71549;42.686;23.300;2023-08-08T06:30:26;1.92;;;1.02;;
43216;SDS011;71549;42.686;23.300;2023-08-08T06:32:26;1.98;;;1.13;;
43216;SDS011;71549;42.686;23.300;2023-08-08T06:34:27;2.00;;;1.17;;
43216;SDS011;71549;42.686;23.300;2023-08-08T06:36:27;0.88;;;0.88;;
43216;SDS011;71549;42.686;23.300;2023-08-08T06:38:28;1.33;;;1.20;;
43216;SDS011;71549;42.686;23.300;2023-08-08T06:40:28;2.10;;;1.38;;
43216;SDS011;71549;42.686;23.300;2023-08-08T06:42:33;4.95;;;1.65;;
43216;SDS011;71549;42.686;23.300;2023-08-08T06:44:40;8.38;;;1.92;;
43216;SDS011;71549;42.686;23.300;2023-08-08T06:46:42;2.30;;;1.25;;
43216;SDS011;71549;42.686;23.300;2023-08-08T06:48:43;1.98;;;1.42;;
43216;SDS011;71549;42.686;23.300;2023-08-08T06:50:44;3.42;;;1.40;;
43216;SDS011;71549;42.686;23.300;2023-08-08T06:52:45;8.20;;;1.42;;
43216;SDS011;71549;42.686;23.300;2023-08-08T06:54:45;4.72;;;1.30;;
43216;SDS011;71549;42.686;23.300;2023-08-08T06:56:46;1.88;;;1.00;;
43216;SDS011;71549;42.686;23.300;2023-08-08T06:58:46;3.92;;;1.00;;
43216;SDS011;71549;42.686;23.300;2023-08-08T07:00:46;2.05;;;1.20;;
43216;SDS011;71549;42.686;23.300;2023-08-08T07:02:47;0.90;;;0.80;;
43216;SDS011;71549;42.686;23.300;2023-08-08T07:04:47;1.15;;;0.82;;
43216;SDS011;71549;42.686;23.300;2023-08-08T07:06:48;1.48;;;1.38;;
43216;SDS011;71549;42.686;23.300;2023-08-08T07:08:48;2.40;;;1.10;;
43216;SDS011;71549;42.686;23.300;2023-08-08T07:10:49;2.88;;;1.05;;
43216;SDS011;71549;42.686;23.300;2023-08-08T07:12:49;3.40;;;1.20;;
43216;SDS011;71549;42.686;23.300;2023-08-08T07:14:50;1.88;;;0.90;;
43216;SDS011;71549;42.686;23.300;2023-08-08T07:16:50;1.35;;;1.00;;
43216;SDS011;71549;42.686;23.300;2023-08-08T07:18:52;0.90;;;0.90;;
43216;SDS011;71549;42.686;23.300;2023-08-08T07:20:52;1.80;;;1.25;;
43216;SDS011;71549;42.686;23.300;2023-08-08T07:22:53;1.35;;;1.05;;
43216;SDS011;71549;42.686;23.300;2023-08-08T07:24:53;1.10;;;0.90;;
43216;SDS011;71549;42.686;23.300;2023-08-08T07:26:55;1.15;;;0.90;;
43216;SDS011;71549;42.686;23.300;2023-08-08T07:28:56;1.92;;;1.02;;
43216;SDS011;71549;42.686;23.300;2023-08-08T07:30:56;2.58;;;0.90;;
43216;SDS011;71549;42.686;23.300;2023-08-08T07:32:57;1.10;;;1.00;;
43216;SDS011;71549;42.686;23.300;2023-08-08T07:34:57;2.35;;;1.00;;
43216;SDS011;71549;42.686;23.300;2023-08-08T07:36:58;9.27;;;0.95;;
43216;SDS011;71549;42.686;23.300;2023-08-08T07:38:59;1.52;;;1.00;;
43216;SDS011;71549;42.686;23.300;2023-08-08T07:41:00;5.28;;;1.13;;
43216;SDS011;71549;42.686;23.300;2023-08-08T07:43:00;4.70;;;1.02;;
43216;SDS011;71549;42.686;23.300;2023-08-08T07:45:00;1.48;;;1.10;;
43216;SDS011;71549;42.686;23.300;2023-08-08T07:47:01;1.42;;;0.85;;
43216;SDS011;71549;42.686;23.300;2023-08-08T07:49:01;0.57;;;0.50;;
43216;SDS011;71549;42.686;23.300;2023-08-08T07:51:03;1.48;;;0.77;;
43216;SDS011;71549;42.686;23.300;2023-08-08T07:53:04;1.25;;;0.77;;
43216;SDS011;71549;42.686;23.300;2023-08-08T07:55:05;1.23;;;0.50;;
43216;SDS011;71549;42.686;23.300;2023-08-08T07:57:05;1.88;;;0.70;;
43216;SDS011;71549;42.686;23.300;2023-08-08T07:59:06;1.02;;;0.90;;
43216;SDS011;71549;42.686;23.300;2023-08-08T08:01:06;0.60;;;0.60;;
43216;SDS011;71549;42.686;23.300;2023-08-08T08:03:07;1.00;;;0.73;;
43216;SDS011;71549;42.686;23.300;2023-08-08T08:05:08;1.85;;;0.50;;
43216;SDS011;71549;42.686;23.300;2023-08-08T08:07:09;0.90;;;0.57;;
43216;SDS011;71549;42.686;23.300;2023-08-08T08:09:09;0.80;;;0.57;;
43216;SDS011;71549;42.686;23.300;2023-08-08T08:11:10;0.68;;;0.50;;
43216;SDS011;71549;42.686;23.300;2023-08-08T08:13:13;0.82;;;0.70;;
43216;SDS011;71549;42.686;23.300;2023-08-08T08:15:14;1.38;;;0.70;;
43216;SDS011;71549;42.686;23.300;2023-08-08T08:17:14;0.80;;;0.75;;
43216;SDS011;71549;42.686;23.300;2023-08-08T08:19:15;1.58;;;0.90;;
43216;SDS011;71549;42.686;23.300;2023-08-08T08:21:15;0.93;;;0.93;;
43216;SDS011;71549;42.686;23.300;2023-08-08T08:23:17;1.90;;;0.70;;
43216;SDS011;71549;42.686;23.300;2023-08-08T08:25:17;0.50;;;0.50;;
43216;SDS011;71549;42.686;23.300;2023-08-08T08:27:18;1.30;;;0.73;;
43216;SDS011;71549;42.686;23.300;2023-08-08T08:29:18;3.10;;;0.77;;
43216;SDS011;71549;42.686;23.300;2023-08-08T08:31:19;0.90;;;0.73;;
43216;SDS011;71549;42.686;23.300;2023-08-08T08:33:19;0.68;;;0.50;;
43216;SDS011;71549;42.686;23.300;2023-08-08T08:35:20;1.02;;;0.68;;
43216;SDS011;71549;42.686;23.300;2023-08-08T08:37:20;1.63;;;0.70;;
43216;SDS011;71549;42.686;23.300;2023-08-08T08:39:21;0.82;;;0.52;;
43216;SDS011;71549;42.686;23.300;2023-08-08T08:41:23;0.85;;;0.70;;
43216;SDS011;71549;42.686;23.300;2023-08-08T08:43:26;0.60;;;0.60;;
43216;SDS011;71549;42.686;23.300;2023-08-08T08:45:27;1.35;;;0.70;;
43216;SDS011;71549;42.686;23.300;2023-08-08T08:47:30;1.02;;;0.93;;
43216;SDS011;71549;42.686;23.300;2023-08-08T08:49:31;0.98;;;0.88;;
43216;SDS011;71549;42.686;23.300;2023-08-08T08:51:32;1.10;;;1.00;;
43216;SDS011;71549;42.686;23.300;2023-08-08T08:53:32;3.80;;;1.00;;
43216;SDS011;71549;42.686;23.300;2023-08-08T08:55:34;0.80;;;0.80;;
43216;SDS011;71549;42.686;23.300;2023-08-08T08:57:35;1.20;;;0.95;;
43216;SDS011;71549;42.686;23.300;2023-08-08T08:59:37;1.05;;;1.00;;
43216;SDS011;71549;42.686;23.300;2023-08-08T09:01:37;1.38;;;1.27;;
43216;SDS011;71549;42.686;23.300;2023-08-08T09:03:39;1.10;;;1.00;;
43216;SDS011;71549;42.686;23.300;2023-08-08T09:05:41;1.48;;;1.38;;
43216;SDS011;71549;42.686;23.300;2023-08-08T09:07:45;1.73;;;1.00;;
43216;SDS011;71549;42.686;23.300;2023-08-08T09:09:45;0.88;;;0.88;;
43216;SDS011;71549;42.686;23.300;2023-08-08T09:11:47;1.80;;;0.77;;
43216;SDS011;71549;42.686;23.300;2023-08-08T09:13:52;0.80;;;0.80;;
43216;SDS011;71549;42.686;23.300;2023-08-08T09:15:52;1.13;;;0.80;;
43216;SDS011;71549;42.686;23.300;2023-08-08T09:17:53;1.70;;;0.90;;
43216;SDS011;71549;42.686;23.300;2023-08-08T09:19:54;1.05;;;0.95;;
43216;SDS011;71549;42.686;23.300;2023-08-08T09:21:55;0.85;;;0.85;;
43216;SDS011;71549;42.686;23.300;2023-08-08T09:23:55;1.67;;;0.80;;
43216;SDS011;71549;42.686;23.300;2023-08-08T09:25:57;1.85;;;1.30;;
43216;SDS011;71549;42.686;23.300;2023-08-08T09:27:57;4.50;;;1.00;;
43216;SDS011;71549;42.686;23.300;2023-08-08T09:29:58;1.15;;;0.68;;
43216;SDS011;71549;42.686;23.300;2023-08-08T09:31:58;1.30;;;0.82;;
43216;SDS011;71549;42.686;23.300;2023-08-08T09:34:00;0.70;;;0.70;;
43216;SDS011;71549;42.686;23.300;2023-08-08T09:36:01;0.80;;;0.80;;
43216;SDS011;71549;42.686;23.300;2023-08-08T09:38:03;0.70;;;0.70;;
43216;SDS011;71549;42.686;23.300;2023-08-08T09:40:04;3.35;;;1.10;;
43216;SDS011;71549;42.686;23.300;2023-08-08T09:42:08;2.88;;;1.20;;
43216;SDS011;71549;42.686;23.300;2023-08-08T09:44:08;0.65;;;0.65;;
43216;SDS011;71549;42.686;23.300;2023-08-08T09:46:09;1.08;;;0.98;;
43216;SDS011;71549;42.686;23.300;2023-08-08T09:48:10;0.80;;;0.80;;
43216;SDS011;71549;42.686;23.300;2023-08-08T09:50:10;0.93;;;0.80;;
43216;SDS011;71549;42.686;23.300;2023-08-08T09:52:11;0.60;;;0.60;;
43216;SDS011;71549;42.686;23.300;2023-08-08T09:54:11;1.30;;;1.20;;
43216;SDS011;71549;42.686;23.300;2023-08-08T09:56:12;1.08;;;0.98;;
43216;SDS011;71549;42.686;23.300;2023-08-08T09:58:14;2.90;;;0.88;;
43216;SDS011;71549;42.686;23.300;2023-08-08T10:00:15;1.00;;;0.90;;
43216;SDS011;71549;42.686;23.300;2023-08-08T10:02:16;1.55;;;1.00;;
43216;SDS011;71549;42.686;23.300;2023-08-08T10:04:17;1.02;;;0.90;;
43216;SDS011;71549;42.686;23.300;2023-08-08T10:06:17;0.70;;;0.70;;
43216;SDS011;71549;42.686;23.300;2023-08-08T10:08:20;1.95;;;0.90;;
43216;SDS011;71549;42.686;23.300;2023-08-08T10:10:21;1.02;;;1.02;;
43216;SDS011;71549;42.686;23.300;2023-08-08T10:12:22;1.92;;;1.00;;
43216;SDS011;71549;42.686;23.300;2023-08-08T10:14:29;1.67;;;0.95;;
43216;SDS011;71549;42.686;23.300;2023-08-08T10:16:32;1.48;;;0.80;;
43216;SDS011;71549;42.686;23.300;2023-08-08T10:18:33;1.42;;;1.00;;
43216;SDS011;71549;42.686;23.300;2023-08-08T10:20:35;0.90;;;0.90;;
43216;SDS011;71549;42.686;23.300;2023-08-08T10:22:36;0.95;;;0.95;;
43216;SDS011;71549;42.686;23.300;2023-08-08T10:24:38;2.95;;;1.27;;
43216;SDS011;71549;42.686;23.300;2023-08-08T10:26:52;1.00;;;0.88;;
43216;SDS011;71549;42.686;23.300;2023-08-08T10:28:57;1.50;;;0.90;;
43216;SDS011;71549;42.686;23.300;2023-08-08T10:31:00;0.90;;;0.80;;
43216;SDS011;71549;42.686;23.300;2023-08-08T10:33:02;1.10;;;1.00;;
43216;SDS011;71549;42.686;23.300;2023-08-08T10:35:05;1.48;;;0.80;;
43216;SDS011;71549;42.686;23.300;2023-08-08T10:37:10;2.45;;;0.93;;
43216;SDS011;71549;42.686;23.300;2023-08-08T10:39:16;0.95;;;0.93;;
43216;SDS011;71549;42.686;23.300;2023-08-08T10:41:18;1.13;;;0.90;;
43216;SDS011;71549;42.686;23.300;2023-08-08T10:43:24;1.38;;;0.68;;
43216;SDS011;71549;42.686;23.300;2023-08-08T10:45:29;1.83;;;0.82;;
43216;SDS011;71549;42.686;23.300;2023-08-08T10:47:31;0.82;;;0.68;;
43216;SDS011;71549;42.686;23.300;2023-08-08T10:49:34;1.35;;;1.15;;
43216;SDS011;71549;42.686;23.300;2023-08-08T10:51:38;0.70;;;0.70;;
43216;SDS011;71549;42.686;23.300;2023-08-08T10:53:42;1.75;;;0.63;;
43216;SDS011;71549;42.686;23.300;2023-08-08T10:55:43;0.60;;;0.60;;
43216;SDS011;71549;42.686;23.300;2023-08-08T10:57:51;1.55;;;0.68;;
43216;SDS011;71549;42.686;23.300;2023-08-08T11:00:15;0.70;;;0.60;;
43216;SDS011;71549;42.686;23.300;2023-08-08T11:02:17;0.57;;;0.50;;
43216;SDS011;71549;42.686;23.300;2023-08-08T11:04:20;1.65;;;0.50;;
43216;SDS011;71549;42.686;23.300;2023-08-08T11:06:23;0.95;;;0.70;;
43216;SDS011;71549;42.686;23.300;2023-08-08T11:08:24;0.77;;;0.65;;
43216;SDS011;71549;42.686;23.300;2023-08-08T11:10:24;1.23;;;0.63;;
43216;SDS011;71549;42.686;23.300;2023-08-08T11:12:30;0.63;;;0.63;;
43216;SDS011;71549;42.686;23.300;2023-08-08T11:14:31;0.90;;;0.73;;
43216;SDS011;71549;42.686;23.300;2023-08-08T11:16:31;1.00;;;1.00;;
43216;SDS011;71549;42.686;23.300;2023-08-08T11:18:32;0.40;;;0.40;;
43216;SDS011;71549;42.686;23.300;2023-08-08T11:20:33;0.85;;;0.85;;
43216;SDS011;71549;42.686;23.300;2023-08-08T11:22:34;1.70;;;0.70;;
43216;SDS011;71549;42.686;23.300;2023-08-08T11:24:35;0.45;;;0.40;;
43216;SDS011;71549;42.686;23.300;2023-08-08T11:26:36;1.02;;;0.80;;
43216;SDS011;71549;42.686;23.300;2023-08-08T11:28:38;0.52;;;0.47;;
43216;SDS011;71549;42.686;23.300;2023-08-08T11:30:42;0.57;;;0.50;;
43216;SDS011;71549;42.686;23.300;2023-08-08T11:32:44;0.50;;;0.50;;
43216;SDS011;71549;42.686;23.300;2023-08-08T11:34:47;1.33;;;0.50;;
43216;SDS011;71549;42.686;23.300;2023-08-08T11:36:47;0.52;;;0.52;;
43216;SDS011;71549;42.686;23.300;2023-08-08T11:38:49;1.50;;;0.60;;
43216;SDS011;71549;42.686;23.300;2023-08-08T11:40:50;1.13;;;0.57;;
43216;SDS011;71549;42.686;23.300;2023-08-08T11:42:52;0.63;;;0.50;;
43216;SDS011;71549;42.686;23.300;2023-08-08T11:44:54;0.60;;;0.45;;
43216;SDS011;71549;42.686;23.300;2023-08-08T11:46:54;1.02;;;0.70;;
43216;SDS011;71549;42.686;23.300;2023-08-08T11:48:55;6.22;;;1.63;;
43216;SDS011;71549;42.686;23.300;2023-08-08T11:51:05;0.70;;;0.45;;
43216;SDS011;71549;42.686;23.300;2023-08-08T11:53:07;1.20;;;0.80;;
43216;SDS011;71549;42.686;23.300;2023-08-08T11:55:08;0.68;;;0.57;;
43216;SDS011;71549;42.686;23.300;2023-08-08T11:57:09;1.00;;;0.70;;
43216;SDS011;71549;42.686;23.300;2023-08-08T11:59:10;1.73;;;0.68;;
43216;SDS011;71549;42.686;23.300;2023-08-08T12:01:12;1.23;;;0.50;;
43216;SDS011;71549;42.686;23.300;2023-08-08T12:03:14;0.73;;;0.60;;